Time;durP1;ratioP1;P1;durP2;ratioP2;P2;SDS_P1;SDS_P2;PMS_P1;PMS_P2;Temp;Humidity;BMP_temperature;BMP_pressure;BME280_temperature;BME280_humidity;BME280_pressure;Samples;Min_cycle;Max_cycle;Signal;HPM_P1;HPM_P2
2022/04/06 00:02:55;;;;;;;;;7.00;7.00;;;;;12.95;48.70;97647.81;6093757;28;96348;-69
2022/04/06 00:06:00;;;;;;;;;7.00;6.50;;;;;13.01;48.55;97646.72;6147003;28;96265;-70
2022/04/06 00:09:04;;;;;;;;;6.60;6.00;;;;;13.06;48.27;97646.72;6211092;28;96286;-70
2022/04/06 00:12:08;;;;;;;;;5.00;5.00;;;;;13.00;48.33;97653.19;6193786;28;99611;-70
2022/04/06 00:15:13;;;;;;;;;5.00;5.00;;;;;13.08;48.26;97651.88;6183014;28;96876;-69
2022/04/06 00:18:17;;;;;;;;;5.00;5.00;;;;;13.11;48.25;97654.88;6083692;28;98381;-70
2022/04/06 00:21:23;;;;;;;;;6.00;5.00;;;;;13.06;48.20;97654.03;6085531;28;97853;-70
2022/04/06 00:24:26;;;;;;;;;6.80;5.20;;;;;13.09;48.28;97661.63;6112707;28;96371;-70
2022/04/06 00:27:29;;;;;;;;;6.40;6.00;;;;;12.96;48.49;97654.81;6200896;28;98470;-70
2022/04/06 00:30:35;;;;;;;;;4.40;4.40;;;;;13.14;48.21;97659.78;6207983;28;98276;-71
2022/04/06 00:33:38;;;;;;;;;5.60;5.00;;;;;13.19;48.03;97656.28;6157392;28;98431;-70
2022/04/06 00:36:43;;;;;;;;;5.00;5.00;;;;;13.09;48.33;97657.03;6148890;28;96840;-71
2022/04/06 00:39:46;;;;;;;;;5.50;5.00;;;;;13.05;48.49;97650.50;6084717;28;97428;-69
2022/04/06 00:42:49;;;;;;;;;7.00;6.00;;;;;13.12;48.18;97653.81;6088282;28;96871;-70
2022/04/06 00:45:53;;;;;;;;;4.75;4.00;;;;;13.12;48.12;97650.28;6068757;28;97980;-71
2022/04/06 00:48:56;;;;;;;;;5.00;5.00;;;;;13.12;48.29;97644.88;6085004;28;99334;-70
2022/04/06 00:52:03;;;;;;;;;5.00;5.00;;;;;13.17;48.18;97642.19;6171472;28;97725;-70
2022/04/06 00:55:08;;;;;;;;;4.80;4.00;;;;;13.25;47.88;97650.56;6120096;28;98849;-70
2022/04/06 00:58:14;;;;;;;;;6.20;6.20;;;;;13.18;47.81;97638.41;6074134;28;97373;-70
2022/04/06 01:01:17;;;;;;;;;6.00;5.50;;;;;13.16;47.92;97638.66;6092253;28;96476;-71
2022/04/06 01:04:21;;;;;;;;;7.00;5.00;;;;;12.93;48.29;97620.19;6104798;28;96360;-71
2022/04/06 01:07:26;;;;;;;;;6.00;6.00;;;;;13.02;48.28;97626.72;6104603;28;96893;-71
2022/04/06 01:10:29;;;;;;;;;6.40;6.00;;;;;12.98;48.47;97631.03;6107233;28;97486;-71
2022/04/06 01:13:33;;;;;;;;;7.00;6.00;;;;;12.96;48.58;97634.00;6214954;28;96368;-71
2022/04/06 01:16:36;;;;;;;;;5.60;5.60;;;;;12.87;48.75;97637.50;6090477;28;96308;-70
2022/04/06 01:19:42;;;;;;;;;6.00;6.00;;;;;12.81;48.91;97630.44;6090199;28;96248;-70
2022/04/06 01:22:47;;;;;;;;;6.00;6.00;;;;;12.81;48.92;97647.47;6107435;28;98589;-71
2022/04/06 01:25:51;;;;;;;;;6.40;6.40;;;;;12.82;49.24;97632.88;6089337;28;96294;-71
2022/04/06 01:28:54;;;;;;;;;6.80;6.20;;;;;12.69;49.34;97636.09;6088779;28;97624;-69
2022/04/06 01:32:08;;;;;;;;;7.00;7.00;;;;;12.65;49.36;97640.41;6147543;28;96848;-71
2022/04/06 01:35:11;;;;;;;;;6.50;5.50;;;;;12.68;49.49;97631.75;6196043;28;96733;-70
2022/04/06 01:38:16;;;;;;;;;6.00;5.00;;;;;12.69;49.30;97641.50;6213141;28;96550;-71
2022/04/06 01:41:20;;;;;;;;;7.00;6.00;;;;;12.60;49.90;97637.69;6165154;28;98504;-69
2022/04/06 01:44:23;;;;;;;;;6.40;6.00;;;;;12.66;49.66;97633.13;6086558;28;97691;-70
2022/04/06 01:47:26;;;;;;;;;6.00;5.00;;;;;12.73;49.59;97642.59;6087341;28;96409;-69
2022/04/06 01:53:57;;;;;;;;;6.00;6.00;;;;;12.91;49.25;97636.69;6080608;28;97487;-69
2022/04/06 01:57:00;;;;;;;;;5.40;5.00;;;;;12.99;49.04;97638.88;6087773;28;96296;-70
2022/04/06 02:00:09;;;;;;;;;8.00;7.20;;;;;13.11;49.03;97644.06;6087162;28;96564;-70
2022/04/06 02:03:16;;;;;;;;;5.60;5.40;;;;;13.11;48.87;97643.22;6064053;28;97925;-70
2022/04/06 02:06:21;;;;;;;;;5.00;5.00;;;;;13.02;49.23;97642.94;6086088;28;97657;-70
2022/04/06 02:09:25;;;;;;;;;7.00;6.00;;;;;12.82;49.31;97611.25;6085538;28;96571;-70
2022/04/06 02:12:29;;;;;;;;;7.00;7.00;;;;;13.08;49.10;97646.47;6116956;28;97221;-71
2022/04/06 02:15:33;;;;;;;;;6.00;6.00;;;;;13.22;49.00;97647.59;6088136;28;97886;-70
2022/04/06 02:18:36;;;;;;;;;7.00;7.00;;;;;13.27;48.79;97650.31;6071585;28;96800;-70
2022/04/06 02:21:40;;;;;;;;;5.00;5.00;;;;;13.32;48.81;97663.84;6146605;28;96300;-70
2022/04/06 02:24:45;;;;;;;;;6.00;6.00;;;;;13.38;48.94;97652.78;6214083;28;96970;-70
2022/04/06 02:27:51;;;;;;;;;6.50;6.00;;;;;13.39;49.05;97651.69;6192426;28;97095;-71
2022/04/06 02:30:56;;;;;;;;;7.00;6.00;;;;;13.02;48.85;97578.81;6095901;28;97681;-71
2022/04/06 02:34:00;;;;;;;;;7.25;6.25;;;;;13.47;48.91;97650.34;6127398;28;96935;-69
2022/04/06 02:37:04;;;;;;;;;6.00;5.00;;;;;13.35;48.97;97649.78;6088621;28;96547;-69
2022/04/06 02:40:11;;;;;;;;;5.00;5.00;;;;;13.40;48.77;97641.66;6085959;28;98026;-70
2022/04/06 02:43:14;;;;;;;;;5.00;5.00;;;;;13.29;49.08;97653.59;6089836;28;98347;-69
2022/04/06 02:46:18;;;;;;;;;4.00;4.00;;;;;13.37;48.84;97637.63;6087837;28;96481;-69
2022/04/06 02:49:21;;;;;;;;;5.00;5.00;;;;;13.18;48.96;97619.47;6087343;28;96585;-69
2022/04/06 02:52:24;;;;;;;;;7.00;7.00;;;;;13.38;48.93;97646.56;6097061;28;96722;-70
2022/04/06 02:55:29;;;;;;;;;7.00;7.00;;;;;13.42;48.78;97642.22;6071160;28;98353;-69
2022/04/06 02:58:33;;;;;;;;;6.00;5.40;;;;;13.35;48.97;97638.94;6088205;28;97443;-70
2022/04/06 03:01:36;;;;;;;;;7.00;6.00;;;;;13.48;48.53;97654.69;6109706;28;96945;-70
2022/04/06 03:04:39;;;;;;;;;7.00;6.80;;;;;13.48;48.77;97654.69;6087159;28;98460;-71
2022/04/06 03:07:43;;;;;;;;;8.00;8.00;;;;;13.44;48.89;97645.44;6087356;28;96408;-69
2022/04/06 03:10:47;;;;;;;;;5.60;5.60;;;;;13.54;48.71;97641.94;6101019;28;97401;-70
2022/04/06 03:13:51;;;;;;;;;6.00;6.00;;;;;13.44;48.98;97650.84;6208108;28;97547;-69
2022/04/06 03:16:55;;;;;;;;;6.00;6.00;;;;;13.42;48.82;97659.28;6086781;28;96400;-69
2022/04/06 03:19:58;;;;;;;;;4.00;4.00;;;;;13.52;48.99;97658.47;6086367;28;97449;-69
2022/04/06 03:23:01;;;;;;;;;7.25;5.25;;;;;13.41;49.02;97652.22;6175143;28;98728;-70
2022/04/06 03:26:08;;;;;;;;;5.00;4.00;;;;;13.50;48.94;97655.19;6095471;28;98486;-69
2022/04/06 03:29:12;;;;;;;;;5.20;5.00;;;;;13.54;48.85;97652.75;6087368;28;96521;-71
2022/04/06 03:32:15;;;;;;;;;5.00;4.60;;;;;13.64;48.69;97658.19;6085125;28;98172;-71
2022/04/06 03:35:19;;;;;;;;;7.00;7.00;;;;;13.56;48.75;97661.44;6088269;28;96502;-69
2022/04/06 03:38:22;;;;;;;;;7.00;6.40;;;;;13.41;49.14;97673.06;6086477;28;96296;-70
2022/04/06 03:41:27;;;;;;;;;5.00;5.00;;;;;13.48;48.96;97660.09;6121344;28;97492;-69
2022/04/06 03:44:30;;;;;;;;;7.00;5.80;;;;;13.56;48.60;97669.56;6210566;28;98375;-69
2022/04/06 03:47:35;;;;;;;;;5.00;5.00;;;;;13.70;48.41;97666.03;6098425;28;97362;-69
2022/04/06 03:50:39;;;;;;;;;7.00;7.00;;;;;13.74;48.29;97663.59;6111375;28;97066;-70
2022/04/06 03:53:42;;;;;;;;;7.00;6.00;;;;;13.74;48.19;97664.41;6074339;28;96530;-70
2022/04/06 03:56:47;;;;;;;;;5.40;5.40;;;;;13.78;48.23;97673.63;6110871;28;97448;-69
2022/04/06 03:59:50;;;;;;;;;5.00;5.00;;;;;13.87;48.06;97679.31;6189932;28;96649;-70
2022/04/06 04:02:53;;;;;;;;;4.40;4.40;;;;;13.84;47.95;97675.25;6109578;28;97380;-70
2022/04/06 04:05:56;;;;;;;;;4.00;4.00;;;;;13.80;48.20;97678.78;6108880;28;98346;-71
2022/04/06 04:09:00;;;;;;;;;6.25;5.00;;;;;13.66;48.17;97662.25;6164766;28;97477;-71
2022/04/06 04:12:05;;;;;;;;;4.00;4.00;;;;;13.89;48.11;97677.94;6133329;28;96968;-71
2022/04/06 04:15:09;;;;;;;;;6.00;5.00;;;;;13.88;47.87;97670.09;6083963;28;97521;-70
2022/04/06 04:18:12;;;;;;;;;4.00;4.00;;;;;13.86;48.10;97677.69;6081765;28;97006;-71
2022/04/06 04:21:34;;;;;;;;;4.75;4.00;;;;;13.87;47.80;97676.63;6117300;28;96668;-71
2022/04/06 04:24:37;;;;;;;;;5.00;5.00;;;;;14.01;47.69;97693.13;6090733;28;97548;-71
2022/04/06 04:27:42;;;;;;;;;4.50;4.50;;;;;13.93;47.79;97680.91;6083577;28;98303;-71
2022/04/06 04:30:45;;;;;;;;;4.00;4.00;;;;;14.01;47.66;97682.28;6075098;28;96935;-71
2022/04/06 04:33:48;;;;;;;;;4.60;4.00;;;;;13.95;47.88;97680.66;6082427;28;99982;-70
2022/04/06 04:36:51;;;;;;;;;4.00;3.00;;;;;14.01;47.85;97683.09;6090675;28;96281;-71
2022/04/06 04:39:55;;;;;;;;;3.80;3.20;;;;;14.08;47.73;97685.50;6090071;28;97984;-70
2022/04/06 04:43:00;;;;;;;;;6.00;6.00;;;;;14.19;47.56;97695.25;6111842;28;96925;-70
2022/04/06 04:46:07;;;;;;;;;5.00;4.60;;;;;14.21;47.29;97704.75;6089393;28;97012;-69
2022/04/06 04:49:10;;;;;;;;;5.00;4.00;;;;;14.24;47.45;97700.66;6073221;28;96931;-70
2022/04/06 04:52:13;;;;;;;;;4.80;4.80;;;;;14.13;47.39;97704.47;6067324;28;99032;-70
2022/04/06 04:55:18;;;;;;;;;5.00;4.20;;;;;14.14;47.37;97693.38;6084844;28;97361;-70
2022/04/06 04:58:23;;;;;;;;;5.00;5.00;;;;;14.26;47.21;97715.59;6086254;28;97850;-70
2022/04/06 05:01:26;;;;;;;;;4.40;4.00;;;;;14.39;46.99;97719.66;6088606;28;96700;-70
2022/04/06 05:04:29;;;;;;;;;4.00;4.00;;;;;14.43;47.00;97728.84;6086631;28;97774;-69
2022/04/06 05:07:37;;;;;;;;;5.00;5.00;;;;;14.48;46.67;97726.13;6086278;28;97748;-70
2022/04/06 05:10:40;;;;;;;;;5.00;5.00;;;;;14.48;46.91;97728.03;6081310;28;97345;-70
2022/04/06 05:13:45;;;;;;;;;5.40;5.00;;;;;14.54;46.76;97722.34;6087700;28;96468;-69
2022/04/06 05:16:48;;;;;;;;;5.00;4.40;;;;;14.65;46.62;97732.06;6137428;28;96945;-71
2022/04/06 05:19:51;;;;;;;;;6.00;5.00;;;;;14.60;46.68;97734.81;6158888;28;97313;-70
2022/04/06 05:22:55;;;;;;;;;7.00;7.00;;;;;14.63;46.61;97736.94;6181033;28;96890;-70
2022/04/06 05:25:58;;;;;;;;;5.00;5.00;;;;;14.44;46.91;97725.06;6083865;28;96636;-70
2022/04/06 05:29:03;;;;;;;;;5.20;5.00;;;;;14.76;46.62;97748.31;6103789;28;97390;-71
2022/04/06 05:32:07;;;;;;;;;5.00;4.00;;;;;14.84;46.41;97751.28;6084907;28;97398;-71
2022/04/06 05:35:11;;;;;;;;;6.25;5.00;;;;;14.87;46.25;97753.41;6085439;28;96853;-71
2022/04/06 05:38:14;;;;;;;;;6.00;5.00;;;;;14.87;46.38;97764.28;6091590;28;96308;-71
2022/04/06 05:41:17;;;;;;;;;6.00;6.00;;;;;14.75;46.44;97769.22;6119642;28;96436;-70
2022/04/06 05:44:22;;;;;;;;;6.80;6.20;;;;;14.61;47.02;97766.22;6087566;28;97450;-70
2022/04/06 05:47:26;;;;;;;;;6.00;6.00;;;;;14.50;47.01;97763.84;6070387;28;99352;-70
2022/04/06 05:50:30;;;;;;;;;9.00;7.00;;;;;14.68;47.00;97764.06;6087374;28;97636;-69
2022/04/06 05:53:33;;;;;;;;;7.00;6.20;;;;;14.86;46.94;97768.06;6086895;28;96476;-70
2022/04/06 05:56:37;;;;;;;;;6.20;6.20;;;;;14.93;46.55;97767.78;6086391;28;97448;-71
2022/04/06 05:59:41;;;;;;;;;6.00;6.00;;;;;15.06;46.29;97775.34;6086413;28;97313;-70
2022/04/06 06:02:45;;;;;;;;;7.00;6.20;;;;;14.97;46.63;97774.28;6111254;28;97124;-70
2022/04/06 06:05:48;;;;;;;;;7.00;6.00;;;;;15.08;46.42;97770.44;6126655;28;97629;-70
2022/04/06 06:08:54;;;;;;;;;6.60;6.00;;;;;15.01;46.60;97781.59;6212180;28;97506;-70
2022/04/06 06:11:58;;;;;;;;;6.80;6.00;;;;;15.04;46.61;97777.53;6085237;28;97718;-70
2022/04/06 06:15:02;;;;;;;;;7.00;7.00;;;;;15.23;46.36;97775.00;6111319;28;96725;-70
2022/04/06 06:18:06;;;;;;;;;7.00;6.00;;;;;15.09;46.44;97777.50;6085218;28;96436;-70
2022/04/06 06:21:09;;;;;;;;;6.50;6.00;;;;;15.21;46.17;97780.69;6100358;28;97403;-69
2022/04/06 06:24:32;;;;;;;;;7.00;6.00;;;;;15.37;45.73;97781.44;6091568;28;96593;-70
2022/04/06 06:27:39;;;;;;;;;8.00;7.00;;;;;15.59;45.57;97771.84;6089161;28;96598;-70
2022/04/06 06:30:43;;;;;;;;;7.00;6.00;;;;;15.93;45.07;97773.81;6087118;28;96715;-70
2022/04/06 06:33:47;;;;;;;;;9.00;6.75;;;;;16.13;44.11;97770.91;6147070;28;97748;-69
2022/04/06 06:36:50;;;;;;;;;7.60;6.60;;;;;16.54;43.52;97784.97;6214360;28;97264;-69
2022/04/06 06:39:54;;;;;;;;;4.00;4.00;;;;;16.70;43.02;97782.94;6210858;28;97005;-70
2022/04/06 06:42:58;;;;;;;;;7.00;6.40;;;;;17.13;42.37;97792.00;6187684;28;98360;-71
2022/04/06 06:46:02;;;;;;;;;7.00;7.00;;;;;17.15;41.82;97785.16;6071026;28;96834;-70
2022/04/06 06:49:05;;;;;;;;;6.00;5.00;;;;;17.43;41.39;97777.19;6074886;28;97029;-70
2022/04/06 06:52:09;;;;;;;;;5.40;4.40;;;;;17.51;41.12;97776.53;6072635;28;97548;-69
2022/04/06 06:55:12;;;;;;;;;6.00;5.00;;;;;17.67;41.06;97781.50;6203128;28;96240;-69
2022/04/06 06:58:15;;;;;;;;;5.60;5.00;;;;;17.92;40.59;97784.97;6153996;28;96834;-70
2022/04/06 07:01:20;;;;;;;;;4.00;4.00;;;;;17.58;39.95;97745.09;6086143;28;96747;-69
2022/04/06 07:04:24;;;;;;;;;4.00;4.00;;;;;17.72;40.54;97789.63;6085765;28;98269;-70
2022/04/06 07:07:28;;;;;;;;;4.40;4.40;;;;;17.59;40.78;97800.44;6088949;28;96569;-71
2022/04/06 07:10:31;;;;;;;;;5.00;5.00;;;;;17.81;40.76;97789.75;6065837;28;97390;-70
2022/04/06 07:13:34;;;;;;;;;4.00;3.00;;;;;17.89;40.52;97789.09;6100301;28;96351;-70
2022/04/06 07:16:39;;;;;;;;;5.00;4.80;;;;;17.76;40.47;97798.00;6087701;28;97372;-70
2022/04/06 07:19:46;;;;;;;;;5.00;4.50;;;;;17.61;40.41;97809.94;6183497;28;97293;-69
2022/04/06 07:22:50;;;;;;;;;5.00;5.00;;;;;17.31;41.05;97804.84;6212709;28;97550;-70
2022/04/06 07:25:54;;;;;;;;;5.00;5.00;;;;;17.45;41.25;97813.09;6210376;28;97976;-71
2022/04/06 07:28:57;;;;;;;;;5.00;5.00;;;;;17.28;41.52;97805.44;6184342;28;98285;-70
2022/04/06 07:32:01;;;;;;;;;5.00;5.00;;;;;16.97;42.07;97809.59;6193704;28;98188;-71
2022/04/06 07:35:06;;;;;;;;;4.00;4.00;;;;;16.74;42.50;97816.66;6211413;28;96910;-70
2022/04/06 07:38:12;;;;;;;;;6.00;5.00;;;;;16.82;42.72;97814.09;6208436;28;96411;-71
2022/04/06 07:41:15;;;;;;;;;4.00;4.00;;;;;16.76;42.84;97806.31;6136477;28;96713;-71
2022/04/06 07:44:19;;;;;;;;;6.25;5.00;;;;;16.75;42.75;97808.22;6087834;28;96396;-71
2022/04/06 07:47:30;;;;;;;;;4.50;4.50;;;;;16.58;43.10;97815.97;6102802;28;97357;-71
2022/04/06 07:50:33;;;;;;;;;5.00;5.00;;;;;16.76;43.03;97809.03;6210932;28;96758;-71
2022/04/06 07:53:36;;;;;;;;;4.00;4.00;;;;;16.94;42.87;97815.63;6147629;28;97977;-71
2022/04/06 07:56:42;;;;;;;;;4.00;4.00;;;;;16.91;42.79;97813.50;6070415;28;97828;-71
2022/04/06 07:59:45;;;;;;;;;5.00;4.00;;;;;17.30;41.90;97819.56;6166671;28;96244;-71
2022/04/06 08:02:51;;;;;;;;;6.00;6.00;;;;;17.37;41.36;97778.34;6215915;28;97522;-71
2022/04/06 08:05:54;;;;;;;;;5.00;4.00;;;;;17.80;41.07;97833.66;6214608;28;96525;-71
2022/04/06 08:08:59;;;;;;;;;4.20;4.20;;;;;18.02;40.76;97821.09;6215140;28;100149;-71
2022/04/06 08:12:02;;;;;;;;;6.00;6.00;;;;;18.53;39.31;97818.38;6198384;28;99566;-71
2022/04/06 08:15:07;;;;;;;;;4.00;4.00;;;;;19.02;38.27;97827.88;6217184;28;97313;-71
2022/04/06 08:18:12;;;;;;;;;6.00;5.00;;;;;19.65;37.43;97824.44;6122899;28;96282;-71
2022/04/06 08:21:16;;;;;;;;;4.60;4.00;;;;;20.10;37.06;97820.72;6087288;28;96685;-71
2022/04/06 08:24:19;;;;;;;;;3.80;3.80;;;;;20.43;36.44;97815.06;6091096;28;97401;-71
2022/04/06 08:27:22;;;;;;;;;5.60;5.00;;;;;20.41;35.98;97822.75;6135863;28;96711;-71
2022/04/06 08:30:31;;;;;;;;;5.00;4.50;;;;;20.48;35.36;97814.91;6206250;28;97341;-70
2022/04/06 08:33:36;;;;;;;;;7.00;6.00;;;;;20.53;35.60;97806.56;6212353;28;97458;-70
2022/04/06 08:36:40;;;;;;;;;7.00;6.20;;;;;21.01;34.70;97814.91;6215832;28;96420;-72
2022/04/06 08:39:43;;;;;;;;;6.40;5.00;;;;;20.59;35.76;97797.91;6201148;28;97417;-71
2022/04/06 08:43:08;;;;;;;;;5.50;5.00;;;;;20.84;35.24;97818.34;6089658;28;98992;-70
2022/04/06 08:46:12;;;;;;;;;5.00;4.00;;;;;20.57;34.94;97811.13;6105241;28;96297;-70
2022/04/06 08:49:17;;;;;;;;;3.00;3.00;;;;;20.52;35.21;97824.13;6089731;28;96633;-72
2022/04/06 08:52:22;;;;;;;;;3.00;3.00;;;;;20.04;35.94;97816.47;6227517;28;96708;-72
2022/04/06 08:55:45;;;;;;;;;4.00;4.00;;;;;19.88;36.68;97835.19;6215236;28;97747;-70
2022/04/06 08:58:49;;;;;;;;;3.00;3.00;;;;;19.40;37.46;97836.72;6216207;28;97421;-71
2022/04/06 09:01:52;;;;;;;;;3.40;3.00;;;;;19.01;38.83;97848.09;6212194;28;96852;-71
2022/04/06 09:04:57;;;;;;;;;4.00;4.00;;;;;18.65;39.40;97836.22;6214084;28;97374;-70
2022/04/06 09:08:01;;;;;;;;;5.00;5.00;;;;;18.29;40.19;97852.31;6150139;28;97075;-71
2022/04/06 09:11:10;;;;;;;;;6.00;5.00;;;;;18.06;40.86;97841.22;6089032;28;96321;-71
2022/04/06 09:14:13;;;;;;;;;5.00;5.00;;;;;18.05;41.27;97842.31;6087633;28;96411;-71
2022/04/06 09:17:23;;;;;;;;;6.60;6.00;;;;;17.82;41.20;97842.38;6109833;28;96557;-71
2022/04/06 09:20:28;;;;;;;;;6.00;6.00;;;;;17.69;41.75;97838.47;6111809;28;98334;-70
2022/04/06 09:23:33;;;;;;;;;5.00;4.00;;;;;17.78;42.61;97835.91;6112225;28;96899;-70
2022/04/06 09:26:37;;;;;;;;;5.40;5.40;;;;;17.82;42.49;97840.47;6091044;28;97774;-70
2022/04/06 09:29:40;;;;;;;;;6.00;5.00;;;;;17.87;42.75;97832.22;6064288;28;96835;-70
2022/04/06 09:32:45;;;;;;;;;5.00;4.00;;;;;17.93;42.51;97841.13;6080382;28;97644;-69
2022/04/06 09:35:50;;;;;;;;;6.00;6.00;;;;;17.70;43.31;97829.16;6083403;28;96604;-69
2022/04/06 09:38:54;;;;;;;;;6.00;6.00;;;;;17.77;43.07;97842.44;6094617;28;97060;-69
2022/04/06 09:42:01;;;;;;;;;5.00;4.00;;;;;17.84;42.96;97840.19;6079080;28;96707;-70
2022/04/06 09:48:26;;;;;;;;;3.75;3.00;;;;;17.86;42.32;97846.94;6087210;28;96699;-70
2022/04/06 09:51:31;;;;;;;;;3.00;3.00;;;;;17.69;42.60;97849.38;6089249;28;96970;-70
2022/04/06 09:54:37;;;;;;;;;2.00;2.00;;;;;17.51;42.69;97847.38;6074949;28;96828;-70
2022/04/06 09:57:43;;;;;;;;;4.00;4.00;;;;;17.68;42.73;97834.13;6140755;28;96924;-69
2022/04/06 10:00:46;;;;;;;;;3.00;3.00;;;;;17.89;42.82;97834.63;6102402;28;96494;-70
2022/04/06 10:03:53;;;;;;;;;2.60;2.60;;;;;18.21;42.57;97822.97;6086970;28;97440;-70
2022/04/06 10:06:59;;;;;;;;;2.33;2.33;;;;;18.31;41.89;97820.91;6079355;28;98261;-70
2022/04/06 10:10:02;;;;;;;;;5.00;5.00;;;;;18.60;41.19;97812.53;6073030;28;96445;-71
2022/04/06 10:13:07;;;;;;;;;5.00;4.80;;;;;18.78;41.04;97821.78;6115576;28;98089;-70
2022/04/06 10:16:31;;;;;;;;;5.00;5.00;;;;;19.20;40.01;97807.06;6086697;28;96585;-69
2022/04/06 10:19:43;;;;;;;;;6.40;6.00;;;;;19.52;39.19;97806.97;6087316;28;98436;-70
2022/04/06 10:22:58;;;;;;;;;4.80;4.00;;;;;19.95;38.16;97807.38;6086421;28;97466;-69
2022/04/06 10:26:11;;;;;;;;;3.00;3.00;;;;;20.01;37.66;97806.16;6072491;28;96914;-70
2022/04/06 10:29:15;;;;;;;;;5.00;4.75;;;;;19.93;37.17;97809.63;6085731;28;98603;-69
2022/04/06 10:32:34;;;;;;;;;4.00;4.00;;;;;20.43;36.53;97796.66;6110814;28;97429;-70
2022/04/06 10:35:37;;;;;;;;;5.00;4.67;;;;;20.61;35.36;97801.16;6072491;28;97399;-69
2022/04/06 10:38:42;;;;;;;;;3.20;3.00;;;;;20.72;35.67;97805.22;6136407;28;100407;-69
2022/04/06 10:42:15;;;;;;;;;5.00;4.40;;;;;20.56;35.51;97806.75;6113697;28;97751;-70
2022/04/06 10:45:37;;;;;;;;;4.20;3.20;;;;;20.84;35.05;97812.06;6105401;28;96774;-70
2022/04/06 10:48:56;;;;;;;;;3.00;3.00;;;;;21.73;34.20;97801.63;6102528;28;97528;-69
2022/04/06 10:52:17;;;;;;;;;2.00;2.00;;;;;21.63;33.35;97795.63;6148545;28;96885;-70
2022/04/06 10:55:25;;;;;;;;;3.00;3.00;;;;;21.84;33.78;97796.63;6083311;28;96577;-69
2022/04/06 10:58:49;;;;;;;;;4.00;3.00;;;;;21.43;34.04;97806.06;6071023;28;97182;-70
2022/04/06 11:02:17;;;;;;;;;3.00;3.00;;;;;21.02;34.53;97797.31;6101368;28;97454;-69
2022/04/06 11:05:44;;;;;;;;;2.00;2.00;;;;;21.20;34.50;97795.50;6089718;28;96381;-69
2022/04/06 11:12:16;;;;;;;;;2.50;2.50;;;;;20.46;35.34;97776.91;6102498;28;97310;-70
2022/04/06 11:15:20;;;;;;;;;3.25;2.75;;;;;20.12;35.88;97804.81;6110952;28;99429;-70
2022/04/06 11:18:48;;;;;;;;;3.00;3.00;;;;;20.34;35.84;97784.84;6085276;28;99545;-70
2022/04/06 11:21:53;;;;;;;;;2.60;2.60;;;;;21.33;34.63;97803.63;6082751;28;97637;-69
2022/04/06 11:24:57;;;;;;;;;3.00;3.00;;;;;22.15;33.11;97804.75;6069942;28;96360;-71
2022/04/06 11:28:11;;;;;;;;;4.00;3.40;;;;;22.56;31.69;97780.31;6067491;28;99449;-70
2022/04/06 11:31:15;;;;;;;;;3.00;3.00;;;;;23.02;31.18;97790.53;6067300;28;96497;-71
2022/04/06 11:34:30;;;;;;;;;2.80;2.80;;;;;22.97;31.39;97787.97;6081722;28;97130;-70
2022/04/06 11:37:40;;;;;;;;;4.00;4.00;;;;;23.27;30.71;97780.56;6065029;28;98283;-70
2022/04/06 11:40:44;;;;;;;;;2.00;2.00;;;;;23.04;31.16;97782.78;6074979;28;96476;-69
2022/04/06 11:43:50;;;;;;;;;1.80;1.80;;;;;22.76;30.52;97778.84;6080738;28;96558;-69
2022/04/06 11:46:54;;;;;;;;;3.00;2.00;;;;;22.98;29.99;97773.09;6078996;28;96346;-69
2022/04/06 11:49:57;;;;;;;;;2.25;2.25;;;;;22.64;29.79;97776.75;6045709;28;98179;-69
2022/04/06 11:53:02;;;;;;;;;5.00;3.80;;;;;22.24;30.57;97767.09;6062788;28;98151;-69
2022/04/06 11:56:06;;;;;;;;;3.00;2.20;;;;;22.05;30.56;97770.19;6087262;28;97412;-70
2022/04/06 11:59:16;;;;;;;;;4.00;4.00;;;;;22.08;31.09;97768.75;6085400;28;96378;-71
2022/04/06 12:02:26;;;;;;;;;4.00;3.00;;;;;22.05;31.23;97753.72;6085086;28;97544;-71
2022/04/06 12:05:33;;;;;;;;;2.00;2.00;;;;;22.11;30.90;97757.91;6081850;28;96649;-70
2022/04/06 12:08:38;;;;;;;;;2.33;2.00;;;;;22.85;30.05;97747.47;6080940;28;98341;-70
2022/04/06 12:11:41;;;;;;;;;2.00;2.00;;;;;22.83;29.66;97744.22;6063944;28;97896;-70
2022/04/06 12:14:47;;;;;;;;;2.00;1.80;;;;;22.69;29.36;97729.06;6090687;28;96937;-70
2022/04/06 12:17:50;;;;;;;;;3.00;3.00;;;;;22.16;29.57;97730.31;6109494;28;97918;-70
2022/04/06 12:20:55;;;;;;;;;2.00;2.00;;;;;21.79;30.12;97737.25;6084904;28;96452;-69
2022/04/06 12:23:58;;;;;;;;;3.00;3.00;;;;;21.73;31.06;97730.28;6069685;28;98244;-71
2022/04/06 12:27:04;;;;;;;;;1.25;1.25;;;;;21.82;30.80;97735.78;6085839;28;96323;-70
2022/04/06 12:30:10;;;;;;;;;3.00;3.00;;;;;22.03;30.78;97737.59;6137819;28;97274;-69
2022/04/06 12:33:14;;;;;;;;;2.00;2.00;;;;;21.89;30.32;97731.41;6085017;28;96749;-70
2022/04/06 12:36:19;;;;;;;;;2.00;2.00;;;;;21.83;30.90;97720.94;6075411;28;97289;-70
2022/04/06 12:39:23;;;;;;;;;3.00;3.00;;;;;21.60;31.18;97720.25;6093729;28;97946;-70
2022/04/06 12:42:26;;;;;;;;;3.00;3.00;;;;;21.48;30.81;97709.13;6072676;28;99671;-70
2022/04/06 12:45:49;;;;;;;;;3.00;3.00;;;;;21.57;31.47;97710.75;6079381;28;96507;-70
2022/04/06 12:48:52;;;;;;;;;2.00;2.00;;;;;21.58;31.70;97708.81;6116387;28;96377;-69
2022/04/06 12:52:18;;;;;;;;;2.00;2.00;;;;;21.63;31.52;97716.91;6148661;28;97394;-70
2022/04/06 12:55:22;;;;;;;;;2.00;2.00;;;;;21.39;31.40;97700.91;6089338;28;97552;-69
2022/04/06 12:58:26;;;;;;;;;3.60;3.00;;;;;21.14;31.36;97694.25;6089232;28;96429;-69
2022/04/06 13:01:31;;;;;;;;;2.60;2.60;;;;;21.01;31.97;97708.03;6089766;28;96588;-70
2022/04/06 13:04:39;;;;;;;;;3.00;3.00;;;;;20.73;32.05;97697.31;6076442;28;96899;-70
2022/04/06 13:07:44;;;;;;;;;3.50;3.00;;;;;20.66;32.65;97699.69;6077777;28;96546;-70
2022/04/06 13:10:47;;;;;;;;;5.00;5.00;;;;;20.55;32.26;97684.66;6090833;28;96541;-70
2022/04/06 13:13:51;;;;;;;;;3.00;3.00;;;;;20.45;32.86;97693.16;6072927;28;98762;-69
2022/04/06 13:16:56;;;;;;;;;3.00;3.00;;;;;20.68;33.02;97691.16;6082214;28;97581;-70
2022/04/06 13:20:00;;;;;;;;;2.80;2.80;;;;;20.87;33.33;97678.00;6089894;28;96817;-69
2022/04/06 13:23:04;;;;;;;;;3.25;3.00;;;;;20.68;33.06;97681.00;6088726;28;96928;-69
2022/04/06 13:26:21;;;;;;;;;3.00;3.00;;;;;20.49;33.56;97680.44;6070088;28;96454;-69
2022/04/06 13:29:25;;;;;;;;;3.00;3.00;;;;;20.11;34.16;97668.28;6065848;28;96633;-70
2022/04/06 13:32:29;;;;;;;;;2.25;2.25;;;;;20.08;34.53;97675.22;6095658;28;98703;-70
2022/04/06 13:35:32;;;;;;;;;4.00;4.00;;;;;19.82;34.48;97679.69;6068129;28;97376;-69
2022/04/06 13:38:36;;;;;;;;;3.00;3.00;;;;;19.73;34.85;97655.03;6075128;28;97040;-70
2022/04/06 13:41:40;;;;;;;;;3.00;3.00;;;;;19.71;34.67;97640.84;6064000;28;96456;-69
2022/04/06 13:44:46;;;;;;;;;2.00;2.00;;;;;19.96;34.57;97661.28;6082122;28;98333;-70
2022/04/06 13:47:52;;;;;;;;;2.25;2.00;;;;;19.75;35.15;97649.22;6066840;28;96885;-70
2022/04/06 13:50:56;;;;;;;;;2.00;2.00;;;;;20.12;34.85;97654.31;6066377;28;97505;-70
2022/04/06 13:53:59;;;;;;;;;3.00;3.00;;;;;20.30;34.78;97649.72;6079966;28;96854;-70
2022/04/06 13:57:03;;;;;;;;;2.00;2.00;;;;;20.30;34.27;97631.41;6084750;28;96511;-69
2022/04/06 14:00:09;;;;;;;;;3.00;2.00;;;;;20.43;34.12;97643.38;6118027;28;97888;-69
2022/04/06 14:03:19;;;;;;;;;2.40;2.40;;;;;20.44;34.29;97638.72;6101729;28;96532;-70
2022/04/06 14:06:22;;;;;;;;;4.00;3.40;;;;;20.60;33.97;97626.22;6091661;28;97393;-70
2022/04/06 14:09:26;;;;;;;;;3.00;3.00;;;;;20.54;34.10;97622.81;6076871;28;97402;-71
2022/04/06 14:12:30;;;;;;;;;4.00;4.00;;;;;20.43;33.59;97620.69;6080084;28;97436;-71
2022/04/06 14:15:34;;;;;;;;;5.00;5.00;;;;;20.50;34.12;97618.28;6093699;28;96393;-70
2022/04/06 14:18:38;;;;;;;;;3.00;3.00;;;;;20.47;34.01;97617.00;6076700;28;96775;-70
2022/04/06 14:21:42;;;;;;;;;4.00;4.00;;;;;20.44;33.68;97614.06;6087985;28;96659;-71
2022/04/06 14:28:02;;;;;;;;;4.00;3.00;;;;;20.91;33.57;97599.56;6088425;28;97896;-71
2022/04/06 14:31:07;;;;;;;;;3.00;3.00;;;;;21.48;33.06;97591.22;6090219;28;96706;-72
2022/04/06 14:34:12;;;;;;;;;3.00;2.00;;;;;21.92;31.56;97585.34;6081968;28;97399;-71
2022/04/06 14:37:18;;;;;;;;;3.00;3.00;;;;;21.78;31.58;97589.41;6087553;28;96974;-71
2022/04/06 14:40:21;;;;;;;;;4.00;4.00;;;;;21.86;31.80;97586.66;6099628;28;96757;-70
2022/04/06 14:43:26;;;;;;;;;3.00;3.00;;;;;21.96;31.14;97588.28;6087539;28;96378;-70
2022/04/06 14:46:29;;;;;;;;;4.00;4.00;;;;;21.89;30.82;97586.00;6087397;28;97388;-70
2022/04/06 14:49:34;;;;;;;;;3.00;3.00;;;;;22.03;30.81;97585.84;6115332;28;96512;-70